PWSweather.com
Personal Weather Stations
Station Observations
KORSEASI11
The Cove, Seaside, OR 97138

The CoveSeaside, OR 97138

Lat: 45.978896, Lon: -123.934823

Elevation: 16

Station Type: Davis Vantage Pro2 6163

http://www.seasideforecast.com

Latest ConditionsUpdated 5:30:01 AM PST Friday, Jan 19, 2018
Currently Today's Max Today's Min Today's Average
Temperature 42.8°F6.0°C 43.4°F6.3°C 42.7°F5.9°C 43.0°F6.1°C
Dew Point 40.9°F4.9°C 41.5°F5.3°C 40.5°F4.7°C 41.0°F5.0°C
Winds 2.3 mph SW3.7 kmh SW 6.9 mph SSW11.1 kmh SSW - 3.4 mph 5.5 kmh
Wind Gusts 3.5 mph5.6 kmh 11.5 mph18.5 kmh - -
Humidity 93% 93% 92% 93%
Pressure 29.82 in1009.8 mb 29.82 in1009.8 mb 29.78 in1008.5 mb -
Precipitation - 0.22 in5.6 mm - -
Hour Temp Dew Point Humidity Winds Wind Gusts Pressure Precip Precip Rate Daily Precip Total
05:30 AM 42.8°F6.0°C 40.9°F4.9°C 93% 2.3 mph SW3.7 kmh SW 3.5 mph5.6 kmh 29.82 in1009.8 mb - 0.00 in0.0 mm 0.22 in5.6 mm
05:20 AM 42.9°F6.1°C 41.0°F5.0°C 93% 3.5 mph SW5.6 kmh SW 8.1 mph13.0 kmh 29.81 in1009.5 mb - 0.01 in0.3 mm 0.22 in5.6 mm
05:10 AM 43.0°F6.1°C 41.1°F5.1°C 93% 4.6 mph SSW7.4 kmh SSW 6.9 mph11.1 kmh 29.82 in1009.8 mb - 0.00 in0.0 mm 0.21 in5.3 mm
05:00 AM 43.0°F6.1°C 41.1°F5.1°C 93% 3.5 mph S5.6 kmh S 4.6 mph7.4 kmh 29.81 in1009.5 mb - 0.00 in0.0 mm 0.21 in5.3 mm
04:50 AM 43.0°F6.1°C 41.1°F5.1°C 93% 3.5 mph SW5.6 kmh SW 5.8 mph9.3 kmh 29.81 in1009.5 mb - 0.01 in0.3 mm 0.21 in5.3 mm
04:40 AM 42.9°F6.1°C 41.0°F5.0°C 93% 2.3 mph S3.7 kmh S 3.5 mph5.6 kmh 29.81 in1009.5 mb - 0.00 in0.0 mm 0.20 in5.1 mm
04:30 AM 42.9°F6.1°C 41.0°F5.0°C 93% 4.6 mph SSW7.4 kmh SSW 9.2 mph14.8 kmh 29.81 in1009.5 mb - 0.01 in0.3 mm 0.20 in5.1 mm
04:20 AM 42.8°F6.0°C 40.9°F4.9°C 93% 2.3 mph SW3.7 kmh SW 6.9 mph11.1 kmh 29.81 in1009.5 mb - 0.01 in0.3 mm 0.20 in5.1 mm
04:10 AM 42.9°F6.1°C 41.0°F5.0°C 93% 1.2 mph SW1.9 kmh SW 3.5 mph5.6 kmh 29.81 in1009.5 mb - 0.00 in0.0 mm 0.19 in4.8 mm
04:00 AM 43.0°F6.1°C 41.1°F5.1°C 93% 2.3 mph SW3.7 kmh SW 3.5 mph5.6 kmh 29.80 in1009.1 mb - 0.00 in0.0 mm 0.19 in4.8 mm
03:50 AM 43.1°F6.2°C 41.2°F5.1°C 93% 4.6 mph SSW7.4 kmh SSW 5.8 mph9.3 kmh 29.80 in1009.1 mb - 0.00 in0.0 mm 0.19 in4.8 mm
03:40 AM 43.2°F6.2°C 41.3°F5.2°C 93% 3.5 mph SSW5.6 kmh SSW 5.8 mph9.3 kmh 29.80 in1009.1 mb - 0.00 in0.0 mm 0.19 in4.8 mm
03:30 AM 43.4°F6.3°C 41.5°F5.3°C 93% 6.9 mph SW11.1 kmh SW 9.2 mph14.8 kmh 29.80 in1009.1 mb - 0.01 in0.3 mm 0.19 in4.8 mm
03:20 AM 43.3°F6.3°C 41.4°F5.2°C 93% 6.9 mph SSW11.1 kmh SSW 11.5 mph18.5 kmh 29.81 in1009.5 mb - 0.00 in0.0 mm 0.18 in4.6 mm
03:10 AM 43.3°F6.3°C 41.4°F5.2°C 93% 4.6 mph SW7.4 kmh SW 5.8 mph9.3 kmh 29.81 in1009.5 mb - 0.01 in0.3 mm 0.18 in4.6 mm
03:00 AM 43.4°F6.3°C 41.5°F5.3°C 93% 3.5 mph SW5.6 kmh SW 4.6 mph7.4 kmh 29.81 in1009.5 mb - 0.02 in0.5 mm 0.17 in4.3 mm
02:50 AM 43.3°F6.3°C 41.4°F5.2°C 93% 5.8 mph SW9.3 kmh SW 4.6 mph7.4 kmh 29.80 in1009.1 mb - 0.00 in0.0 mm 0.15 in3.8 mm
02:40 AM 43.3°F6.3°C 41.4°F5.2°C 93% 3.5 mph SW5.6 kmh SW 5.8 mph9.3 kmh 29.80 in1009.1 mb - 0.01 in0.3 mm 0.15 in3.8 mm
02:30 AM 43.2°F6.2°C 41.3°F5.2°C 93% 2.3 mph SW3.7 kmh SW 3.5 mph5.6 kmh 29.80 in1009.1 mb - 0.01 in0.3 mm 0.14 in3.6 mm
02:20 AM 42.9°F6.1°C 41.0°F5.0°C 93% 3.5 mph SW5.6 kmh SW 6.9 mph11.1 kmh 29.80 in1009.1 mb - 0.02 in0.5 mm 0.13 in3.3 mm
02:10 AM 42.7°F5.9°C 40.5°F4.7°C 92% 3.5 mph S5.6 kmh S 5.8 mph9.3 kmh 29.80 in1009.1 mb - 0.03 in0.8 mm 0.11 in2.8 mm
02:00 AM 42.7°F5.9°C 40.5°F4.7°C 92% 2.3 mph SSW3.7 kmh SSW 5.8 mph9.3 kmh 29.79 in1008.8 mb - 0.02 in0.5 mm 0.08 in2.0 mm
01:50 AM 42.7°F5.9°C 40.5°F4.7°C 92% Calm Calm -- 29.79 in1008.8 mb - 0.01 in0.3 mm 0.06 in1.5 mm
01:40 AM 42.8°F6.0°C 40.6°F4.8°C 92% Calm Calm -- 29.79 in1008.8 mb - 0.02 in0.5 mm 0.05 in1.3 mm
01:30 AM 42.8°F6.0°C 40.7°F4.8°C 92% 1.2 mph WSW1.9 kmh WSW 3.5 mph5.6 kmh 29.79 in1008.8 mb - 0.01 in0.3 mm 0.03 in0.8 mm
01:20 AM 42.9°F6.1°C 40.7°F4.8°C 92% 2.3 mph SW3.7 kmh SW 3.5 mph5.6 kmh 29.78 in1008.5 mb - 0.01 in0.3 mm 0.02 in0.5 mm
01:10 AM 43.0°F6.1°C 40.9°F4.9°C 92% 3.5 mph SW5.6 kmh SW 5.8 mph9.3 kmh 29.79 in1008.8 mb - 0.00 in0.0 mm 0.01 in0.3 mm
01:00 AM 43.1°F6.2°C 40.9°F4.9°C 92% 3.5 mph SSW5.6 kmh SSW 5.8 mph9.3 kmh 29.79 in1008.8 mb - 0.00 in0.0 mm 0.01 in0.3 mm
12:50 AM 43.2°F6.2°C 41.1°F5.1°C 92% 5.8 mph SSW9.3 kmh SSW 8.1 mph13.0 kmh 29.79 in1008.8 mb - 0.00 in0.0 mm 0.01 in0.3 mm
12:40 AM 43.4°F6.3°C 41.2°F5.1°C 92% 2.3 mph SW3.7 kmh SW 4.6 mph7.4 kmh 29.79 in1008.8 mb - 0.00 in0.0 mm 0.01 in0.3 mm
12:30 AM 43.3°F6.3°C 41.1°F5.1°C 92% 2.3 mph WSW3.7 kmh WSW 4.6 mph7.4 kmh 29.79 in1008.8 mb - 0.00 in0.0 mm 0.01 in0.3 mm
12:20 AM 43.0°F6.1°C 40.8°F4.9°C 92% 5.8 mph SW9.3 kmh SW 9.2 mph14.8 kmh 29.79 in1008.8 mb - 0.00 in0.0 mm 0.01 in0.3 mm
12:10 AM 43.0°F6.1°C 40.8°F4.9°C 92% 4.6 mph WSW7.4 kmh WSW 5.8 mph9.3 kmh 29.80 in1009.1 mb - 0.01 in0.3 mm 0.01 in0.3 mm
12:00 AM 43.1°F6.2°C 40.9°F4.9°C 92% 2.3 mph W3.7 kmh W 3.5 mph5.6 kmh 29.78 in1008.5 mb - 0.00 in0.0 mm 0.00 in0.0 mm